Aviation Digital Data Service (ADDS)

Output produced by METARs form (1244 UTC 26 March 2019)
found at http://www.aviationweather.gov/metar/data/
 
Forecast for: KTUL (TULSA , OK, US)
Text: KTUL 261120Z 2612/2712 01004KT 5SM BR SKC
Forecast period: 1200 to 1600 UTC 26 March 2019
Forecast type: FROM: standard forecast or significant change
Winds: from the N (10 degrees) at 5 MPH (4 knots; 2.1 m/s)
Visibility: 5 miles (8 km)
Clouds: clear skies
Weather: BR  (mist)
Text: TEMPO 2612/2615 1SM BR SCT002
Forecast period: 1200 to 1500 UTC 26 March 2019
Forecast type: TEMPORARY: The following changes expected for less than half the time period
Visibility: 1.00 miles (1.61 km)
Ceiling: at least 12,000 feet AGL
Clouds: scattered clouds at 200 feet AGL
Weather: BR  (mist)
Text: FM261600 14005KT P6SM SKC
Forecast period: 1600 UTC 26 March 2019 to 1200 UTC 27 March 2019
Forecast type: FROM: standard forecast or significant change
Winds: from the SE (140 degrees) at 6 MPH (5 knots; 2.6 m/s)
Visibility: 6 or more miles 10+ km)
Clouds: clear skies
Weather: no significant weather forecast for this period